createdAt,value
2022-08-12T00:02:04.309Z,77.00
2022-08-12T00:05:59.668Z,77.40
2022-08-12T00:10:05.770Z,77.60
2022-08-12T00:14:07.485Z,78.10
2022-08-12T00:18:08.309Z,78.30
2022-08-12T00:22:08.604Z,78.40
2022-08-12T00:26:22.255Z,78.40
2022-08-12T00:30:27.188Z,79.50
2022-08-12T00:34:32.387Z,78.80
2022-08-12T00:38:32.901Z,79.20
2022-08-12T00:42:15.106Z,79.70
2022-08-12T00:46:17.091Z,80.10
2022-08-12T00:50:00.144Z,80.40
2022-08-12T00:53:42.621Z,81.10
2022-08-12T00:57:27.337Z,81.50
2022-08-12T01:01:11.645Z,81.70
2022-08-12T01:05:15.993Z,81.80
2022-08-12T01:09:16.269Z,81.70
2022-08-12T01:13:18.574Z,81.90
2022-08-12T01:17:03.616Z,82.50
2022-08-12T01:20:54.009Z,83.00
2022-08-12T01:24:53.447Z,83.20
2022-08-12T01:28:37.038Z,83.50
2022-08-12T01:32:22.211Z,83.60
2022-08-12T01:36:10.583Z,84.40
2022-08-12T01:40:36.991Z,84.40
2022-08-12T01:44:02.225Z,85.00
2022-08-12T01:48:03.933Z,84.90
2022-08-12T01:52:21.870Z,84.80
2022-08-12T01:56:03.184Z,85.60
2022-08-12T01:59:53.380Z,85.90
2022-08-12T02:04:07.581Z,86.20
2022-08-12T02:08:19.404Z,86.60
2022-08-12T02:12:37.522Z,86.90
2022-08-12T02:16:32.917Z,87.50
2022-08-12T02:20:52.027Z,88.10
2022-08-12T02:24:38.356Z,88.30
2022-08-12T02:28:22.648Z,88.70
2022-08-12T02:32:05.879Z,89.10
2022-08-12T02:35:51.461Z,90.10
2022-08-12T02:39:35.223Z,90.10
2022-08-12T02:43:23.226Z,90.20
2022-08-12T02:47:07.658Z,90.60
2022-08-12T02:51:12.822Z,90.80
2022-08-12T02:55:04.489Z,91.10
2022-08-12T02:58:48.933Z,91.10
2022-08-12T03:02:34.589Z,91.20
2022-08-12T03:06:22.332Z,91.50
2022-08-12T03:10:09.498Z,91.60
2022-08-12T03:14:02.377Z,91.80
2022-08-12T03:18:24.977Z,91.90
2022-08-12T03:22:09.343Z,92.10
2022-08-12T03:25:54.043Z,92.70
2022-08-12T03:29:49.786Z,92.50
2022-08-12T03:33:37.285Z,92.70
2022-08-12T03:37:21.782Z,92.60
2022-08-12T03:41:26.462Z,92.80
2022-08-12T03:45:42.072Z,92.80
2022-08-12T03:49:54.251Z,93.00
2022-08-12T03:53:55.654Z,93.20
2022-08-12T03:57:55.697Z,93.30
2022-08-12T04:01:41.297Z,93.50
2022-08-12T04:05:24.134Z,93.50
2022-08-12T04:09:27.380Z,93.60
2022-08-12T04:13:19.690Z,93.90
2022-08-12T04:17:04.335Z,94.00
2022-08-12T04:20:49.912Z,94.20
2022-08-12T04:24:36.413Z,94.20
2022-08-12T04:28:27.808Z,94.40
2022-08-12T04:32:12.198Z,94.50
2022-08-12T04:35:56.170Z,94.70
2022-08-12T04:39:40.727Z,94.70
2022-08-12T04:44:00.627Z,94.80
2022-08-12T04:47:29.763Z,95.20
2022-08-12T04:51:12.433Z,94.80
2022-08-12T04:54:55.576Z,94.90
2022-08-12T04:58:38.788Z,94.70
2022-08-12T05:02:22.852Z,94.80
2022-08-12T05:06:08.066Z,94.70
2022-08-12T05:09:58.873Z,94.60
2022-08-12T05:13:44.735Z,94.50
2022-08-12T05:17:28.306Z,95.00
2022-08-12T05:21:12.479Z,94.60
2022-08-12T05:24:55.424Z,94.40
2022-08-12T05:28:38.568Z,94.10
2022-08-12T05:32:21.463Z,94.00
2022-08-12T05:36:04.788Z,93.70
2022-08-12T05:39:48.913Z,93.70
2022-08-12T05:43:31.381Z,93.60
2022-08-12T05:47:14.633Z,93.60
2022-08-12T05:50:57.785Z,93.20
2022-08-12T05:54:57.201Z,93.30
2022-08-12T05:58:41.978Z,93.00
2022-08-12T06:02:26.239Z,93.00
2022-08-12T06:06:08.817Z,92.80
2022-08-12T06:09:51.516Z,92.70
2022-08-12T06:13:53.213Z,92.50
2022-08-12T06:17:38.899Z,92.50
2022-08-12T06:21:23.504Z,92.40
2022-08-12T06:25:07.143Z,92.10
2022-08-12T06:28:52.000Z,92.00
2022-08-12T06:32:35.428Z,91.60
2022-08-12T06:36:22.597Z,91.60
2022-08-12T06:40:06.557Z,91.20
2022-08-12T06:44:04.889Z,91.30
2022-08-12T06:47:50.393Z,90.90
2022-08-12T06:51:34.712Z,90.70
2022-08-12T06:55:20.679Z,90.50
2022-08-12T06:59:03.507Z,90.40
2022-08-12T07:02:46.688Z,90.20
2022-08-12T07:06:30.269Z,90.10
2022-08-12T07:10:14.136Z,89.70
2022-08-12T07:14:12.630Z,88.80
2022-08-12T07:18:00.558Z,88.40
2022-08-12T07:21:59.580Z,87.20
2022-08-12T07:25:46.608Z,88.10
2022-08-12T07:30:00.076Z,87.10
2022-08-12T07:33:33.023Z,86.50
2022-08-12T07:37:15.815Z,86.00
2022-08-12T07:41:03.913Z,85.00
2022-08-12T07:44:47.179Z,83.60
2022-08-12T07:48:42.057Z,83.60
2022-08-12T07:52:25.389Z,82.00
2022-08-12T07:56:10.831Z,81.20
2022-08-12T07:59:55.782Z,80.20
2022-08-12T08:03:59.460Z,79.80
2022-08-12T08:07:42.510Z,79.60
2022-08-12T08:11:44.801Z,77.40
2022-08-12T08:15:58.927Z,77.40
2022-08-12T08:19:33.584Z,76.70
2022-08-12T08:23:56.256Z,76.40
2022-08-12T08:27:47.041Z,76.40
2022-08-12T08:31:29.960Z,75.30
2022-08-12T08:35:13.189Z,75.60
2022-08-12T08:38:58.462Z,75.40
2022-08-12T08:42:40.642Z,75.20
2022-08-12T08:46:25.570Z,75.10
2022-08-12T08:50:10.781Z,75.00
2022-08-12T08:53:54.273Z,73.00
2022-08-12T08:57:43.683Z,73.40
2022-08-12T09:06:02.612Z,70.80
2022-08-12T09:10:02.638Z,71.20
2022-08-12T09:14:10.671Z,71.10
2022-08-12T09:17:54.471Z,71.00
2022-08-12T09:21:54.735Z,69.30
2022-08-12T09:25:38.786Z,68.70
2022-08-12T09:30:10.971Z,69.10
2022-08-12T09:34:29.835Z,67.20
2022-08-12T09:37:55.235Z,66.20
2022-08-12T09:42:33.453Z,65.10
2022-08-12T09:46:07.124Z,64.80
2022-08-12T09:49:57.964Z,64.70
2022-08-12T09:53:41.768Z,66.10
2022-08-12T09:58:07.419Z,64.60
2022-08-12T10:01:35.438Z,65.10
2022-08-12T10:06:20.362Z,63.40
2022-08-12T10:09:58.735Z,64.30
2022-08-12T10:13:42.930Z,63.10
2022-08-12T10:17:25.599Z,64.20
2022-08-12T10:21:11.041Z,63.40
2022-08-12T10:25:17.974Z,64.60
2022-08-12T10:30:38.641Z,63.30
2022-08-12T10:33:23.056Z,63.20
2022-08-12T10:37:22.987Z,64.40
2022-08-12T10:41:57.110Z,63.80
2022-08-12T10:45:38.662Z,63.70
2022-08-12T10:50:02.463Z,61.80
2022-08-12T10:53:45.003Z,62.70
2022-08-12T10:58:15.701Z,63.70
2022-08-12T11:04:17.825Z,62.60
2022-08-12T11:07:05.006Z,61.90
2022-08-12T11:09:59.803Z,61.80
2022-08-12T11:13:48.618Z,61.50
2022-08-12T11:17:43.653Z,62.20
2022-08-12T11:21:56.294Z,61.60
2022-08-12T11:25:55.737Z,61.40
2022-08-12T11:30:05.288Z,58.40
2022-08-12T11:34:06.236Z,59.00
2022-08-12T11:37:58.337Z,58.70
2022-08-12T11:41:43.605Z,59.00
2022-08-12T11:45:29.570Z,59.40
2022-08-12T11:49:31.355Z,59.00
2022-08-12T11:53:59.156Z,58.80
2022-08-12T11:58:17.227Z,57.90
2022-08-12T12:02:02.557Z,57.90
2022-08-12T12:05:28.426Z,57.90
2022-08-12T12:09:11.172Z,57.40
2022-08-12T12:12:55.302Z,57.20
2022-08-12T12:16:40.008Z,56.20
2022-08-12T12:20:27.718Z,56.60
2022-08-12T12:24:13.148Z,56.30
2022-08-12T12:28:04.972Z,56.50
2022-08-12T12:32:09.895Z,56.10
2022-08-12T12:36:18.497Z,55.20
2022-08-12T12:39:55.341Z,55.00
2022-08-12T12:43:43.276Z,54.60
2022-08-12T12:47:29.050Z,55.10
2022-08-12T12:51:49.208Z,55.30
2022-08-12T12:55:22.314Z,54.70
2022-08-12T12:59:06.139Z,53.70
2022-08-12T13:02:53.912Z,53.70
2022-08-12T13:06:36.840Z,55.00
2022-08-12T13:10:23.909Z,53.70
2022-08-12T13:14:12.693Z,55.10
2022-08-12T13:18:02.428Z,54.10
2022-08-12T13:22:01.120Z,53.70
2022-08-12T13:25:43.631Z,53.20
2022-08-12T13:29:30.825Z,53.20
2022-08-12T13:33:17.695Z,53.10
2022-08-12T13:37:00.487Z,54.00
2022-08-12T13:40:46.289Z,53.90
2022-08-12T13:44:30.252Z,55.00
2022-08-12T13:48:12.963Z,54.90
2022-08-12T13:52:02.761Z,55.40
2022-08-12T13:55:49.774Z,54.30
2022-08-12T13:59:48.223Z,54.30
2022-08-12T14:03:50.984Z,54.60
2022-08-12T14:07:48.865Z,54.50
2022-08-12T14:11:32.470Z,52.70
2022-08-12T14:15:16.649Z,52.70
2022-08-12T14:18:59.914Z,52.70
2022-08-12T14:22:49.542Z,52.10
2022-08-12T14:26:34.279Z,53.10
2022-08-12T14:30:28.764Z,54.10
2022-08-12T14:34:12.262Z,53.80
2022-08-12T14:37:59.089Z,54.10
2022-08-12T14:41:48.633Z,54.10
2022-08-12T14:45:48.809Z,54.10
2022-08-12T14:50:33.995Z,54.20
2022-08-12T14:57:57.296Z,54.10
2022-08-12T15:01:42.345Z,53.00
2022-08-12T15:06:05.219Z,52.90
2022-08-12T15:09:28.732Z,52.40
2022-08-12T15:13:12.498Z,52.70
2022-08-12T15:17:00.485Z,51.70
2022-08-12T15:20:43.715Z,53.80
2022-08-12T15:24:26.631Z,54.90
2022-08-12T15:28:10.759Z,54.80
2022-08-12T15:31:59.486Z,54.80
2022-08-12T15:35:51.925Z,54.60
2022-08-12T15:39:36.224Z,54.40
2022-08-12T15:43:51.976Z,53.30
2022-08-12T15:47:26.671Z,52.90
2022-08-12T15:51:11.184Z,52.60
2022-08-12T15:55:06.593Z,52.90
2022-08-12T15:58:54.444Z,54.40
2022-08-12T16:02:49.486Z,54.50
2022-08-12T16:10:38.238Z,55.40
2022-08-12T16:14:22.391Z,55.90
2022-08-12T16:18:15.320Z,55.80
2022-08-12T16:22:04.164Z,55.80
2022-08-12T16:26:05.581Z,55.80
2022-08-12T16:29:57.197Z,55.30
2022-08-12T16:33:58.744Z,55.10
2022-08-12T16:38:25.014Z,54.60
2022-08-12T16:41:47.986Z,55.40
2022-08-12T16:46:05.501Z,55.00
2022-08-12T16:49:43.504Z,54.50
2022-08-12T16:53:30.599Z,54.20
2022-08-12T16:57:34.624Z,54.30
2022-08-12T17:01:25.922Z,54.50
2022-08-12T17:05:12.610Z,54.90
2022-08-12T17:09:02.383Z,55.50
2022-08-12T17:12:45.604Z,55.60
2022-08-12T17:16:30.325Z,55.30
2022-08-12T17:20:35.156Z,55.20
2022-08-12T17:24:22.489Z,55.40
2022-08-12T17:28:16.482Z,55.40
2022-08-12T17:32:02.647Z,56.00
2022-08-12T17:35:50.086Z,56.10
2022-08-12T17:40:06.577Z,55.70
2022-08-12T17:43:56.180Z,55.80
2022-08-12T17:47:40.091Z,54.80
2022-08-12T17:51:25.453Z,54.80
2022-08-12T17:55:24.585Z,54.60
2022-08-12T17:59:14.842Z,55.10
2022-08-12T18:03:57.730Z,56.10
2022-08-12T18:07:21.554Z,56.70
2022-08-12T18:12:05.726Z,57.50
2022-08-12T18:16:03.933Z,57.80
2022-08-12T18:20:06.429Z,58.20
2022-08-12T18:23:53.661Z,59.30
2022-08-12T18:27:46.830Z,59.20
2022-08-12T18:31:44.737Z,59.80
2022-08-12T18:35:47.063Z,60.40
2022-08-12T18:39:56.211Z,61.20
2022-08-12T18:43:58.746Z,61.80
2022-08-12T18:47:50.170Z,62.50
2022-08-12T18:51:48.802Z,63.50
2022-08-12T18:55:37.436Z,63.30
2022-08-12T19:00:00.936Z,64.40
2022-08-12T19:03:39.608Z,63.90
2022-08-12T19:07:24.661Z,64.70
2022-08-12T19:11:27.933Z,64.60
2022-08-12T19:15:12.128Z,66.00
2022-08-12T19:18:55.115Z,66.70
2022-08-12T19:22:37.652Z,67.20
2022-08-12T19:26:26.124Z,67.60
2022-08-12T19:30:33.414Z,65.50
2022-08-12T19:34:47.143Z,66.00
2022-08-12T19:38:27.868Z,66.90
2022-08-12T19:42:15.734Z,66.40
2022-08-12T19:46:01.654Z,66.70
2022-08-12T19:49:48.493Z,66.70
2022-08-12T19:53:56.896Z,67.20
2022-08-12T19:57:35.295Z,67.10
2022-08-12T20:01:28.162Z,67.20
2022-08-12T20:06:03.205Z,67.20
2022-08-12T20:09:19.766Z,68.70
2022-08-12T20:13:18.476Z,67.70
2022-08-12T20:17:08.433Z,67.80
2022-08-12T20:20:52.007Z,68.20
2022-08-12T20:24:37.619Z,68.80
2022-08-12T20:28:21.568Z,68.80
2022-08-12T20:32:05.939Z,69.60
2022-08-12T20:36:12.890Z,70.00
2022-08-12T20:40:04.304Z,70.60
2022-08-12T20:43:54.855Z,71.60
2022-08-12T20:47:46.676Z,72.10
2022-08-12T20:51:50.937Z,72.30
2022-08-12T20:55:42.990Z,72.80
2022-08-12T20:59:31.762Z,73.20
2022-08-12T21:03:32.452Z,74.10
2022-08-12T21:07:16.863Z,74.60
2022-08-12T21:11:03.622Z,75.00
2022-08-12T21:14:53.504Z,75.60
2022-08-12T21:18:37.484Z,76.00
2022-08-12T21:22:24.467Z,76.40
2022-08-12T21:26:11.128Z,76.60
2022-08-12T21:29:56.601Z,76.60
2022-08-12T21:33:45.881Z,77.10
2022-08-12T21:37:53.279Z,77.50
2022-08-12T21:41:37.905Z,77.90
2022-08-12T21:45:46.868Z,78.10
2022-08-12T21:49:53.939Z,78.40
2022-08-12T21:53:31.720Z,79.00
2022-08-12T21:57:36.471Z,79.20
2022-08-12T22:01:34.402Z,79.60
2022-08-12T22:05:44.704Z,79.90
2022-08-12T22:09:43.139Z,80.40
2022-08-12T22:14:04.101Z,80.90
2022-08-12T22:17:49.971Z,81.00
2022-08-12T22:21:37.919Z,81.10
2022-08-12T22:25:32.611Z,82.10
2022-08-12T22:29:32.988Z,82.10
2022-08-12T22:33:19.273Z,82.30
2022-08-12T22:52:27.189Z,85.20
2022-08-12T22:56:14.451Z,86.50
2022-08-12T22:59:57.537Z,86.30
2022-08-12T23:03:49.580Z,86.40
2022-08-12T23:07:59.654Z,86.30
2022-08-12T23:11:43.093Z,86.10
2022-08-12T23:15:25.875Z,86.10
2022-08-12T23:19:17.886Z,86.00
2022-08-12T23:23:05.618Z,86.00
2022-08-12T23:27:09.938Z,86.70
2022-08-12T23:30:52.408Z,86.00
2022-08-12T23:34:36.044Z,86.20
2022-08-12T23:38:31.154Z,86.40
2022-08-12T23:42:17.866Z,86.40
2022-08-12T23:46:08.687Z,86.70
2022-08-12T23:49:58.920Z,86.80
2022-08-12T23:53:45.372Z,87.10
2022-08-12T23:57:28.328Z,87.20
